Time;durP1;ratioP1;P1;durP2;ratioP2;P2;SDS_P1;SDS_P2;PMS_P1;PMS_P2;Temp;Humidity;BMP_temperature;BMP_pressure;BME280_temperature;BME280_humidity;BME280_pressure;Samples;Min_cycle;Max_cycle;Signal;HPM_P1;HPM_P2
2022/03/25 00:01:11;;;;;;;63.25;50.22;;;6.30;99.90;;;;;;5000617;28;20037;-74
2022/03/25 00:03:37;;;;;;;59.92;48.75;;;6.30;99.90;;;;;;5017133;28;20095;-74
2022/03/25 00:06:03;;;;;;;55.78;46.40;;;6.20;99.90;;;;;;5016837;28;20040;-73
2022/03/25 00:08:29;;;;;;;57.28;46.40;;;6.20;99.90;;;;;;5000489;28;20041;-73
2022/03/25 00:10:54;;;;;;;59.28;47.58;;;6.20;99.90;;;;;;5016698;28;20042;-74
2022/03/25 00:13:20;;;;;;;56.88;47.28;;;6.20;99.90;;;;;;5016886;28;20128;-73
2022/03/25 00:15:45;;;;;;;58.72;48.90;;;6.20;99.90;;;;;;5016619;28;20512;-73
2022/03/25 00:18:11;;;;;;;58.78;46.80;;;6.20;99.90;;;;;;5016368;28;20476;-73
2022/03/25 00:20:36;;;;;;;59.45;48.03;;;6.20;99.90;;;;;;4999904;28;20072;-73
2022/03/25 00:23:02;;;;;;;59.35;47.42;;;6.20;99.90;;;;;;5016728;28;20041;-73
2022/03/25 00:25:29;;;;;;;58.75;47.58;;;6.10;99.90;;;;;;5016501;28;20124;-73
2022/03/25 00:27:54;;;;;;;58.63;47.47;;;6.10;99.90;;;;;;5000370;28;20045;-73
2022/03/25 00:30:20;;;;;;;66.72;52.03;;;6.00;99.90;;;;;;5016715;28;20448;-73
2022/03/25 00:32:46;;;;;;;68.60;53.03;;;6.00;99.90;;;;;;5000023;28;20479;-74
2022/03/25 00:35:12;;;;;;;66.80;54.15;;;6.00;99.90;;;;;;5000061;28;20124;-73
2022/03/25 00:37:37;;;;;;;66.75;51.67;;;6.00;99.90;;;;;;5016307;28;20490;-73
2022/03/25 00:40:04;;;;;;;59.50;46.65;;;5.90;99.90;;;;;;5016487;28;20094;-73
2022/03/25 00:42:30;;;;;;;60.35;46.35;;;5.80;99.90;;;;;;4999723;28;20127;-73
2022/03/25 00:44:56;;;;;;;49.53;40.50;;;5.70;99.90;;;;;;5016173;28;20034;-73
2022/03/25 00:47:23;;;;;;;47.75;38.28;;;5.70;99.90;;;;;;5016061;28;20169;-73
2022/03/25 00:49:50;;;;;;;38.20;32.75;;;5.60;99.90;;;;;;5016033;28;20045;-73
2022/03/25 00:52:16;;;;;;;37.22;31.63;;;5.60;99.90;;;;;;5016294;28;20042;-73
2022/03/25 00:54:42;;;;;;;36.13;29.20;;;5.50;99.90;;;;;;5015904;28;20064;-73
2022/03/25 00:57:07;;;;;;;39.25;32.92;;;5.40;99.90;;;;;;5015994;28;20045;-73
2022/03/25 00:59:33;;;;;;;38.08;32.35;;;5.40;99.90;;;;;;4999779;28;20033;-73
2022/03/25 01:02:00;;;;;;;46.13;38.20;;;5.30;99.90;;;;;;4999512;28;20521;-73
2022/03/25 01:04:27;;;;;;;45.30;36.65;;;5.30;99.90;;;;;;5015720;28;20033;-73
2022/03/25 01:06:52;;;;;;;44.05;36.72;;;5.30;99.90;;;;;;5015692;28;20077;-73
2022/03/25 01:09:18;;;;;;;43.95;36.40;;;5.20;99.90;;;;;;5015792;28;20095;-73
2022/03/25 01:11:43;;;;;;;53.67;41.78;;;5.20;99.90;;;;;;4999596;28;20045;-73
2022/03/25 01:14:09;;;;;;;53.17;42.05;;;5.20;99.90;;;;;;5015627;28;20037;-73
2022/03/25 01:16:35;;;;;;;51.22;40.05;;;5.20;99.90;;;;;;5015621;28;20071;-73
2022/03/25 01:19:01;;;;;;;47.22;40.20;;;5.10;99.90;;;;;;5015557;28;20038;-73
2022/03/25 01:21:26;;;;;;;49.45;40.47;;;5.20;99.90;;;;;;5015673;28;20041;-73
2022/03/25 01:23:52;;;;;;;55.75;43.63;;;5.20;99.90;;;;;;5015428;28;20044;-73
2022/03/25 01:26:18;;;;;;;63.05;49.67;;;5.10;99.90;;;;;;5015517;28;20041;-73
2022/03/25 01:28:43;;;;;;;56.75;45.05;;;5.10;99.90;;;;;;5015493;28;20037;-73
2022/03/25 01:31:09;;;;;;;56.63;44.65;;;5.10;99.90;;;;;;5014567;28;20041;-73
2022/03/25 01:33:37;;;;;;;57.67;45.30;;;5.10;99.90;;;;;;5015400;28;20038;-73
2022/03/25 01:36:03;;;;;;;47.08;37.70;;;5.10;99.90;;;;;;4998939;28;20128;-73
2022/03/25 01:38:29;;;;;;;42.35;34.42;;;5.00;99.90;;;;;;5015347;28;20045;-73
2022/03/25 01:40:55;;;;;;;50.50;40.72;;;5.00;99.90;;;;;;5015575;28;20084;-73
2022/03/25 01:43:20;;;;;;;55.95;42.42;;;4.90;99.90;;;;;;5015275;28;20508;-73
2022/03/25 01:45:46;;;;;;;49.00;38.50;;;4.80;99.90;;;;;;5015481;28;20059;-73
2022/03/25 01:48:14;;;;;;;49.00;37.70;;;4.70;99.90;;;;;;5015290;28;20421;-73
2022/03/25 01:50:42;;;;;;;46.90;34.13;;;4.60;99.90;;;;;;5015266;28;20049;-73
2022/03/25 01:53:14;;;;;;;33.83;29.92;;;4.60;99.90;;;;;;5015230;28;20041;-73
2022/03/25 01:55:51;;;;;;;32.85;27.30;;;4.50;99.90;;;;;;5015194;28;20417;-73
2022/03/25 01:58:18;;;;;;;37.22;29.25;;;4.50;99.90;;;;;;5015276;28;20041;-73
2022/03/25 02:00:44;;;;;;;33.58;29.52;;;4.40;99.90;;;;;;4998867;28;20037;-73
2022/03/25 02:03:10;;;;;;;51.55;32.00;;;4.30;99.90;;;;;;4998716;28;20042;-73
2022/03/25 02:05:36;;;;;;;35.92;31.50;;;4.30;99.90;;;;;;5015124;28;20116;-73
2022/03/25 02:08:02;;;;;;;33.25;29.65;;;4.20;99.90;;;;;;4998783;28;20120;-73
2022/03/25 02:10:29;;;;;;;38.85;33.20;;;4.20;99.90;;;;;;5015203;28;20041;-73
2022/03/25 02:12:54;;;;;;;37.03;32.33;;;4.10;99.90;;;;;;5015045;28;20087;-73
2022/03/25 02:15:35;;;;;;;37.58;33.55;;;4.10;99.90;;;;;;4998837;28;20049;-73
2022/03/25 02:18:02;;;;;;;36.15;32.25;;;4.10;99.90;;;;;;5015166;28;20139;-73
2022/03/25 02:20:27;;;;;;;36.35;32.13;;;4.00;99.90;;;;;;5015077;28;20472;-74
2022/03/25 02:22:53;;;;;;;36.15;32.05;;;4.00;99.90;;;;;;5015082;28;20077;-73
2022/03/25 02:25:21;;;;;;;41.08;35.83;;;4.00;99.90;;;;;;5014988;28;20038;-73
2022/03/25 02:27:47;;;;;;;39.55;33.97;;;4.00;99.90;;;;;;5015283;28;20405;-73
2022/03/25 02:30:13;;;;;;;38.40;33.97;;;4.00;99.90;;;;;;5015215;28;20038;-73
2022/03/25 02:32:39;;;;;;;38.83;34.72;;;3.90;99.90;;;;;;4998625;28;20129;-73
2022/03/25 02:35:06;;;;;;;41.63;36.58;;;3.90;99.90;;;;;;5015007;28;20045;-73
2022/03/25 02:37:31;;;;;;;40.88;35.58;;;3.90;99.90;;;;;;5014899;28;20037;-73
2022/03/25 02:39:57;;;;;;;42.28;34.80;;;3.90;99.90;;;;;;5014756;28;20064;-73
2022/03/25 02:42:24;;;;;;;40.33;35.53;;;3.90;99.90;;;;;;4999711;28;20046;-73
2022/03/25 02:44:49;;;;;;;39.05;34.40;;;3.90;99.90;;;;;;5018224;28;20083;-73
2022/03/25 02:47:16;;;;;;;35.20;31.50;;;3.90;99.90;;;;;;5018247;28;20072;-73
2022/03/25 02:49:42;;;;;;;36.45;32.35;;;3.80;99.90;;;;;;5018245;28;20386;-73
2022/03/25 02:52:08;;;;;;;38.63;33.88;;;3.80;99.90;;;;;;5018323;28;20056;-73
2022/03/25 02:54:33;;;;;;;39.63;34.38;;;3.90;99.90;;;;;;5001916;28;20034;-73
2022/03/25 02:56:59;;;;;;;40.75;35.10;;;3.80;99.90;;;;;;5018684;28;20563;-73
2022/03/25 02:59:25;;;;;;;42.00;35.75;;;3.80;99.90;;;;;;5018229;28;20096;-73
2022/03/25 03:01:52;;;;;;;40.90;33.40;;;3.80;99.90;;;;;;5017839;28;20179;-73
2022/03/25 03:04:17;;;;;;;35.50;31.70;;;3.80;99.90;;;;;;5018059;28;20108;-73
2022/03/25 03:06:46;;;;;;;39.83;33.70;;;3.80;99.90;;;;;;5001594;28;20509;-73
2022/03/25 03:09:12;;;;;;;34.10;30.45;;;3.70;99.90;;;;;;5017764;28;20041;-73
2022/03/25 03:11:38;;;;;;;33.40;29.35;;;3.70;99.90;;;;;;5017764;28;20091;-73
2022/03/25 03:14:04;;;;;;;30.77;27.63;;;3.60;99.90;;;;;;5017901;28;20081;-73
2022/03/25 03:16:30;;;;;;;34.35;28.42;;;3.60;99.90;;;;;;5017681;28;20045;-73
2022/03/25 03:18:56;;;;;;;30.15;27.13;;;3.50;99.90;;;;;;5017775;28;20068;-73
2022/03/25 03:21:24;;;;;;;35.90;30.60;;;3.40;99.90;;;;;;5017651;28;20034;-73
2022/03/25 03:23:51;;;;;;;39.53;30.92;;;3.30;99.90;;;;;;5017690;28;20041;-73
2022/03/25 03:26:18;;;;;;;225.75;38.08;;;3.40;99.90;;;;;;5017437;28;20079;-73
2022/03/25 03:28:44;;;;;;;303.25;37.17;;;3.30;99.90;;;;;;5017414;28;20037;-73
2022/03/25 03:31:10;;;;;;;44.17;27.30;;;3.20;99.90;;;;;;5017371;28;20103;-73
2022/03/25 03:33:35;;;;;;;63.97;28.67;;;3.20;99.90;;;;;;5017537;28;20045;-73
2022/03/25 03:36:01;;;;;;;66.63;26.83;;;3.20;99.90;;;;;;5017339;28;20124;-73
2022/03/25 03:38:27;;;;;;;75.93;25.50;;;3.10;99.90;;;;;;5017285;28;20052;-73
2022/03/25 03:40:53;;;;;;;108.78;26.67;;;3.20;99.90;;;;;;5017134;28;20390;-73
2022/03/25 03:43:18;;;;;;;101.20;25.95;;;3.20;99.90;;;;;;5000840;28;20076;-73
2022/03/25 03:45:44;;;;;;;53.42;24.98;;;3.20;99.90;;;;;;5017034;28;20037;-73
2022/03/25 03:48:09;;;;;;;43.75;23.85;;;3.10;99.90;;;;;;5017089;28;20041;-73
2022/03/25 03:50:35;;;;;;;31.50;23.23;;;3.10;99.90;;;;;;5017029;28;20113;-73
2022/03/25 03:53:00;;;;;;;26.63;24.00;;;3.00;99.90;;;;;;5016702;28;20041;-73
2022/03/25 03:55:26;;;;;;;29.73;26.52;;;3.00;99.90;;;;;;5016489;28;20041;-73
2022/03/25 03:57:52;;;;;;;29.25;26.25;;;3.00;99.90;;;;;;5000639;28;20037;-73
2022/03/25 04:00:17;;;;;;;109.65;29.20;;;3.00;99.90;;;;;;5016862;28;20123;-73
2022/03/25 04:02:46;;;;;;;162.23;28.60;;;3.00;99.90;;;;;;5016712;28;20041;-73
2022/03/25 04:05:12;;;;;;;258.10;32.05;;;3.00;99.90;;;;;;5016861;28;20133;-73
2022/03/25 04:07:45;;;;;;;122.18;28.52;;;2.90;99.90;;;;;;5016673;28;20069;-73
2022/03/25 04:10:12;;;;;;;333.30;32.95;;;3.00;99.90;;;;;;5016910;28;20041;-73
2022/03/25 04:12:38;;;;;;;233.70;30.08;;;2.90;99.90;;;;;;5000240;28;20044;-73
2022/03/25 04:15:09;;;;;;;219.15;28.73;;;2.90;99.90;;;;;;5016789;28;20052;-73
2022/03/25 04:17:43;;;;;;;129.55;28.30;;;2.90;99.90;;;;;;5016499;28;20044;-73
2022/03/25 04:20:13;;;;;;;30.95;24.83;;;2.80;99.90;;;;;;5016799;28;20045;-73
2022/03/25 04:22:39;;;;;;;39.55;24.90;;;2.80;99.90;;;;;;5016401;28;20052;-73
2022/03/25 04:25:07;;;;;;;51.03;24.30;;;2.70;99.90;;;;;;5016324;28;20049;-73
2022/03/25 04:27:33;;;;;;;48.22;26.15;;;2.80;99.90;;;;;;5016383;28;20129;-73
2022/03/25 04:29:59;;;;;;;56.55;24.73;;;2.70;99.90;;;;;;5016308;28;20124;-73
2022/03/25 04:32:24;;;;;;;94.68;27.60;;;2.80;99.90;;;;;;4999999;28;20492;-73
2022/03/25 04:34:50;;;;;;;62.17;26.90;;;2.70;99.90;;;;;;5016210;28;20084;-73
2022/03/25 04:37:15;;;;;;;74.22;26.75;;;2.70;99.90;;;;;;5016266;28;20038;-73
2022/03/25 04:39:41;;;;;;;35.33;25.23;;;2.70;99.90;;;;;;5016174;28;20072;-73
2022/03/25 04:42:07;;;;;;;52.28;25.02;;;2.70;99.90;;;;;;4999855;28;20041;-73
2022/03/25 04:44:34;;;;;;;58.25;26.15;;;2.70;99.90;;;;;;5015882;28;20108;-73
2022/03/25 04:46:59;;;;;;;83.30;26.88;;;2.70;99.90;;;;;;5015997;28;20033;-73
2022/03/25 04:49:25;;;;;;;60.65;27.67;;;2.70;99.90;;;;;;5015992;28;20038;-73
2022/03/25 04:51:50;;;;;;;208.60;30.83;;;2.70;99.90;;;;;;5016212;28;20067;-73
2022/03/25 04:54:16;;;;;;;146.38;28.75;;;2.70;99.90;;;;;;5015806;28;20053;-73
2022/03/25 04:56:41;;;;;;;86.85;28.42;;;2.70;99.90;;;;;;4999579;28;20044;-73
2022/03/25 04:59:07;;;;;;;40.45;27.70;;;2.60;99.90;;;;;;5015853;28;20047;-73
2022/03/25 05:01:33;;;;;;;31.98;25.98;;;2.60;99.90;;;;;;5015872;28;20040;-73
2022/03/25 05:03:58;;;;;;;49.63;30.25;;;2.60;99.90;;;;;;5015699;28;20383;-73
2022/03/25 05:06:24;;;;;;;52.63;29.08;;;2.70;99.90;;;;;;4999179;28;20044;-73
2022/03/25 05:08:49;;;;;;;58.55;29.90;;;2.60;99.90;;;;;;5015884;28;20041;-73
2022/03/25 05:11:15;;;;;;;38.13;27.20;;;2.60;99.90;;;;;;4999318;28;20052;-73
2022/03/25 05:13:41;;;;;;;32.00;28.35;;;2.60;99.90;;;;;;4999276;28;20128;-73
2022/03/25 05:16:06;;;;;;;30.38;26.25;;;2.60;99.90;;;;;;5015615;28;20124;-73
2022/03/25 05:18:32;;;;;;;31.45;26.08;;;2.60;99.90;;;;;;5015813;28;20080;-73
2022/03/25 05:20:57;;;;;;;41.75;26.85;;;2.60;99.90;;;;;;5015720;28;20076;-73
2022/03/25 05:23:23;;;;;;;33.63;26.85;;;2.50;99.90;;;;;;5015470;28;20033;-73
2022/03/25 05:25:49;;;;;;;30.63;27.33;;;2.50;99.90;;;;;;4999164;28;20033;-73
2022/03/25 05:28:16;;;;;;;37.08;28.98;;;2.50;99.90;;;;;;5015726;28;20037;-73
2022/03/25 05:30:42;;;;;;;28.92;25.83;;;2.50;99.90;;;;;;5015374;28;20038;-73
2022/03/25 05:33:08;;;;;;;29.15;26.05;;;2.50;99.90;;;;;;4999256;28;20035;-73
2022/03/25 05:35:34;;;;;;;31.88;26.55;;;2.50;99.90;;;;;;5015296;28;20048;-73
2022/03/25 05:38:00;;;;;;;29.90;26.70;;;2.50;99.90;;;;;;5015341;28;20034;-73
2022/03/25 05:40:26;;;;;;;29.50;25.95;;;2.50;99.90;;;;;;5016451;28;20133;-73
2022/03/25 05:42:52;;;;;;;27.75;24.75;;;2.50;99.90;;;;;;5015157;28;20383;-73
2022/03/25 05:45:19;;;;;;;30.75;26.85;;;2.50;99.90;;;;;;5015364;28;20393;-73
2022/03/25 05:47:45;;;;;;;30.67;26.45;;;2.50;99.90;;;;;;4998933;28;20037;-73
2022/03/25 05:50:12;;;;;;;31.02;25.70;;;2.50;99.90;;;;;;5015251;28;20061;-73
2022/03/25 05:52:38;;;;;;;29.42;26.05;;;2.50;99.90;;;;;;5015165;28;20049;-73
2022/03/25 05:55:05;;;;;;;31.95;26.65;;;2.60;99.90;;;;;;5015276;28;20050;-73
2022/03/25 05:57:31;;;;;;;33.35;28.50;;;2.60;99.90;;;;;;5015129;28;20409;-73
2022/03/25 05:59:58;;;;;;;31.25;27.67;;;2.60;99.90;;;;;;5015145;28;20042;-73
2022/03/25 06:02:25;;;;;;;35.58;29.25;;;2.70;99.90;;;;;;5015117;28;20069;-73
2022/03/25 06:04:52;;;;;;;32.95;28.13;;;2.70;99.90;;;;;;5015168;28;20409;-73
2022/03/25 06:07:17;;;;;;;33.92;28.88;;;2.80;99.90;;;;;;5015093;28;20079;-73
2022/03/25 06:09:43;;;;;;;33.70;29.45;;;2.80;99.90;;;;;;5015234;28;20077;-73
2022/03/25 06:12:10;;;;;;;33.88;28.35;;;2.80;99.90;;;;;;5015286;28;20497;-73
2022/03/25 06:14:35;;;;;;;34.80;29.35;;;2.90;99.90;;;;;;5015077;28;20041;-73
2022/03/25 06:17:01;;;;;;;34.05;29.08;;;3.00;99.90;;;;;;5015981;28;20588;-73
2022/03/25 06:19:28;;;;;;;36.78;30.83;;;3.00;99.90;;;;;;5018782;28;20508;-73
2022/03/25 06:21:55;;;;;;;36.20;30.52;;;3.10;99.90;;;;;;5002473;28;20041;-73
2022/03/25 06:24:21;;;;;;;38.88;31.52;;;3.10;99.90;;;;;;5018589;28;20049;-73
2022/03/25 06:26:46;;;;;;;37.55;30.55;;;3.20;99.90;;;;;;5002251;28;20039;-73
2022/03/25 06:29:12;;;;;;;40.55;31.35;;;3.30;99.90;;;;;;5018606;28;20044;-73
2022/03/25 06:31:37;;;;;;;38.17;32.30;;;3.30;99.90;;;;;;5002437;28;20045;-73
2022/03/25 06:34:03;;;;;;;41.40;33.55;;;3.40;99.90;;;;;;5018432;28;20041;-73
2022/03/25 06:36:29;;;;;;;43.88;34.40;;;3.50;99.90;;;;;;5018458;28;20045;-73
2022/03/25 06:38:55;;;;;;;46.80;35.78;;;3.60;99.90;;;;;;5018349;28;20041;-73
2022/03/25 06:41:21;;;;;;;46.40;35.15;;;3.60;99.90;;;;;;5018500;28;20045;-73
2022/03/25 06:43:46;;;;;;;46.08;35.10;;;3.70;99.90;;;;;;5018095;28;20128;-75
2022/03/25 06:46:14;;;;;;;49.38;37.17;;;3.80;99.90;;;;;;5018286;28;20076;-73
2022/03/25 06:48:40;;;;;;;48.50;36.85;;;3.90;99.90;;;;;;5018478;28;20037;-73
2022/03/25 06:51:06;;;;;;;58.92;41.85;;;4.00;99.90;;;;;;5018379;28;20067;-73
2022/03/25 06:53:32;;;;;;;53.45;39.28;;;4.10;99.90;;;;;;5018247;28;20490;-73
2022/03/25 06:55:58;;;;;;;51.53;39.88;;;4.20;99.90;;;;;;5018287;28;20393;-73
2022/03/25 06:58:23;;;;;;;55.58;40.05;;;4.30;99.90;;;;;;5018222;28;20450;-73
2022/03/25 07:00:49;;;;;;;52.42;39.63;;;4.40;99.90;;;;;;5017926;28;20029;-73
2022/03/25 07:03:15;;;;;;;51.35;38.60;;;4.50;99.90;;;;;;5017811;28;20064;-72
2022/03/25 07:05:41;;;;;;;55.08;40.42;;;4.60;99.90;;;;;;5017842;28;20045;-72
2022/03/25 07:08:09;;;;;;;55.05;40.58;;;4.70;99.90;;;;;;5017886;28;20037;-72
2022/03/25 07:10:35;;;;;;;57.97;41.90;;;4.80;99.90;;;;;;5017938;28;20116;-72
2022/03/25 07:13:01;;;;;;;56.28;41.55;;;4.90;99.90;;;;;;5017794;28;20133;-72
2022/03/25 07:15:26;;;;;;;59.92;41.20;;;5.00;99.90;;;;;;5017614;28;20501;-72
2022/03/25 07:17:52;;;;;;;58.03;42.00;;;5.10;99.90;;;;;;5001284;28;20087;-72
2022/03/25 07:20:20;;;;;;;61.60;45.72;;;5.30;99.90;;;;;;5017630;28;20041;-72
2022/03/25 07:22:48;;;;;;;59.60;43.33;;;5.40;99.90;;;;;;5017567;28;20064;-72
2022/03/25 07:25:15;;;;;;;57.42;41.53;;;5.50;99.90;;;;;;5017349;28;20049;-72
2022/03/25 07:27:42;;;;;;;59.00;42.97;;;5.60;99.90;;;;;;5017629;28;20379;-72
2022/03/25 07:30:09;;;;;;;56.88;41.58;;;5.70;99.90;;;;;;5017479;28;20034;-72
2022/03/25 07:32:34;;;;;;;56.88;42.88;;;5.90;99.90;;;;;;5017806;28;20091;-72
2022/03/25 07:35:00;;;;;;;58.95;41.40;;;5.90;99.90;;;;;;5017284;28;20567;-72
2022/03/25 07:37:26;;;;;;;59.00;42.47;;;6.10;99.90;;;;;;5017615;28;20029;-72
2022/03/25 07:39:52;;;;;;;53.95;41.03;;;6.20;99.90;;;;;;5017203;28;20524;-72
2022/03/25 07:42:17;;;;;;;58.85;41.55;;;6.30;99.90;;;;;;5017637;28;20038;-72
2022/03/25 07:44:43;;;;;;;54.35;40.20;;;6.40;99.90;;;;;;5000688;28;20033;-72
2022/03/25 07:47:11;;;;;;;55.50;40.30;;;6.60;99.90;;;;;;5017046;28;20080;-72
2022/03/25 07:49:38;;;;;;;50.40;40.10;;;6.70;99.90;;;;;;5017256;28;20058;-72
2022/03/25 07:52:04;;;;;;;57.53;39.97;;;6.80;99.90;;;;;;5016962;28;20458;-72
2022/03/25 07:54:30;;;;;;;54.72;41.60;;;6.90;99.90;;;;;;5016934;28;20052;-72
2022/03/25 07:56:58;;;;;;;55.60;41.20;;;7.10;99.90;;;;;;5016883;28;20045;-72
2022/03/25 07:59:25;;;;;;;56.13;41.35;;;7.20;99.90;;;;;;5000544;28;20033;-72
2022/03/25 08:01:52;;;;;;;51.70;38.25;;;7.30;99.90;;;;;;5000461;28;20072;-72
2022/03/25 08:04:20;;;;;;;53.47;39.08;;;7.50;99.90;;;;;;5017194;28;20091;-72
2022/03/25 08:06:46;;;;;;;51.08;36.80;;;7.60;99.90;;;;;;5016898;28;20049;-72
2022/03/25 08:09:12;;;;;;;51.65;37.80;;;7.80;99.90;;;;;;5017108;28;20037;-72
2022/03/25 08:11:37;;;;;;;45.63;35.25;;;8.00;99.90;;;;;;5016765;28;20045;-72
2022/03/25 08:14:03;;;;;;;48.10;35.97;;;8.20;99.90;;;;;;5000696;28;20081;-72
2022/03/25 08:16:28;;;;;;;46.90;34.63;;;8.40;99.90;;;;;;5016606;28;20417;-72
2022/03/25 08:18:54;;;;;;;45.97;34.35;;;8.60;99.90;;;;;;5016523;28;20056;-72
2022/03/25 08:21:19;;;;;;;46.50;32.63;;;8.80;99.90;;;;;;5016437;28;20037;-73
2022/03/25 08:29:16;;;;;;;41.28;30.50;;;9.50;99.90;;;;;;5016381;28;20041;-73
2022/03/25 08:31:41;;;;;;;41.13;29.55;;;9.80;99.90;;;;;;5016287;28;20489;-73
2022/03/25 08:34:08;;;;;;;41.70;30.17;;;10.00;99.90;;;;;;5016471;28;20043;-73
2022/03/25 08:36:34;;;;;;;38.17;27.50;;;10.20;99.90;;;;;;4999935;28;20037;-73
2022/03/25 08:39:00;;;;;;;38.97;28.95;;;10.40;99.90;;;;;;5016165;28;20513;-73
2022/03/25 08:41:26;;;;;;;39.08;27.67;;;10.60;99.90;;;;;;5015876;28;20072;-73
2022/03/25 08:43:52;;;;;;;35.17;27.45;;;10.90;99.90;;;;;;5015975;28;20505;-73
2022/03/25 08:46:20;;;;;;;37.50;27.80;;;11.10;99.90;;;;;;4999920;28;20069;-73
2022/03/25 08:48:46;;;;;;;36.97;26.80;;;11.40;99.90;;;;;;4999878;28;20454;-73
2022/03/25 08:51:12;;;;;;;38.97;26.40;;;11.60;99.90;;;;;;5016155;28;20038;-73
2022/03/25 08:53:38;;;;;;;37.05;26.88;;;11.80;99.90;;;;;;5016134;28;20044;-73
2022/03/25 08:56:03;;;;;;;39.70;27.75;;;12.00;99.90;;;;;;5016209;28;20489;-73
2022/03/25 08:58:29;;;;;;;36.53;26.02;;;12.30;99.90;;;;;;5016070;28;20037;-73
2022/03/25 09:00:54;;;;;;;36.20;25.40;;;12.60;99.90;;;;;;5016837;28;20048;-73
2022/03/25 09:03:20;;;;;;;39.10;27.70;;;13.00;99.90;;;;;;5015669;28;20095;-73
2022/03/25 09:05:46;;;;;;;38.80;27.45;;;13.30;99.30;;;;;;5016044;28;20041;-73
2022/03/25 09:08:12;;;;;;;37.40;27.67;;;13.60;98.70;;;;;;5015687;28;20548;-73
2022/03/25 09:10:37;;;;;;;41.10;26.92;;;13.90;97.40;;;;;;5015946;28;20081;-73
2022/03/25 09:13:03;;;;;;;38.63;27.75;;;14.10;95.00;;;;;;5015938;28;20083;-73
2022/03/25 09:15:29;;;;;;;34.95;28.20;;;14.50;92.30;;;;;;5015746;28;20128;-73
2022/03/25 09:17:54;;;;;;;42.17;28.98;;;14.90;91.90;;;;;;5016071;28;20497;-75
2022/03/25 09:20:20;;;;;;;38.40;28.20;;;15.10;86.00;;;;;;5015543;28;20041;-75
2022/03/25 09:22:46;;;;;;;37.00;28.10;;;15.40;84.10;;;;;;5015431;28;20106;-75
2022/03/25 09:25:13;;;;;;;41.28;29.65;;;15.60;80.80;;;;;;5015490;28;20116;-75
2022/03/25 09:27:39;;;;;;;35.75;27.17;;;15.90;75.30;;;;;;5015878;28;20408;-73
2022/03/25 09:30:06;;;;;;;42.75;28.83;;;16.20;72.30;;;;;;5015449;28;20033;-72
2022/03/25 09:32:32;;;;;;;38.25;29.08;;;16.50;68.90;;;;;;5015382;28;20524;-72
2022/03/25 09:35:09;;;;;;;39.10;28.33;;;16.80;66.30;;;;;;5015330;28;20045;-72
2022/03/25 09:37:43;;;;;;;36.17;26.35;;;17.00;64.00;;;;;;5015268;28;20517;-73
2022/03/25 09:40:14;;;;;;;35.20;27.17;;;17.10;62.30;;;;;;5015543;28;20449;-73
2022/03/25 09:42:40;;;;;;;35.78;26.85;;;17.20;61.00;;;;;;5015223;28;20049;-73
2022/03/25 09:45:08;;;;;;;40.00;28.58;;;17.40;59.60;;;;;;5015391;28;20060;-73
2022/03/25 09:47:34;;;;;;;32.28;23.75;;;17.60;59.90;;;;;;4999118;28;20033;-73
2022/03/25 09:50:01;;;;;;;35.42;24.23;;;17.90;57.60;;;;;;5015344;28;20144;-73
2022/03/25 09:52:29;;;;;;;34.17;24.60;;;18.00;54.80;;;;;;5016598;28;20038;-73
2022/03/25 09:54:55;;;;;;;33.25;23.67;;;18.00;54.30;;;;;;5019352;28;20413;-73
2022/03/25 09:57:21;;;;;;;32.45;22.42;;;18.10;53.90;;;;;;5019248;28;20489;-73
2022/03/25 09:59:46;;;;;;;32.88;22.08;;;18.20;53.80;;;;;;5019092;28;20041;-73
2022/03/25 10:02:12;;;;;;;35.13;23.70;;;18.30;53.90;;;;;;5019041;28;20037;-73
2022/03/25 10:04:37;;;;;;;43.75;23.88;;;18.40;53.70;;;;;;5019251;28;20037;-73
2022/03/25 10:07:17;;;;;;;34.72;22.88;;;18.50;53.30;;;;;;5002712;28;20040;-73
2022/03/25 10:09:44;;;;;;;32.20;22.55;;;18.60;52.60;;;;;;5018944;28;20121;-73
2022/03/25 10:12:26;;;;;;;32.38;23.05;;;18.70;53.30;;;;;;5018853;28;20064;-73
2022/03/25 10:15:10;;;;;;;30.63;21.77;;;18.80;51.90;;;;;;5002662;28;20099;-73
2022/03/25 10:17:52;;;;;;;39.50;22.58;;;19.00;52.00;;;;;;5019024;28;20056;-73
2022/03/25 10:20:24;;;;;;;33.88;21.55;;;19.20;51.20;;;;;;5002462;28;20041;-73
2022/03/25 10:23:03;;;;;;;34.50;21.30;;;19.40;50.90;;;;;;5018684;28;20051;-73
2022/03/25 10:25:47;;;;;;;30.50;21.48;;;19.30;51.10;;;;;;5001788;28;20136;-73
2022/03/25 10:28:30;;;;;;;31.50;22.40;;;19.40;50.40;;;;;;5018554;28;20508;-73
2022/03/25 10:30:57;;;;;;;28.70;21.10;;;19.50;50.10;;;;;;5018780;28;20127;-73
2022/03/25 10:33:34;;;;;;;25.75;19.92;;;19.60;50.20;;;;;;5018491;28;20087;-73
2022/03/25 10:36:08;;;;;;;34.92;21.52;;;19.60;48.80;;;;;;5018495;28;20489;-73
2022/03/25 10:38:42;;;;;;;32.38;21.65;;;19.70;49.10;;;;;;5018944;28;20034;-72
2022/03/25 10:41:08;;;;;;;30.98;21.00;;;19.90;49.00;;;;;;5019316;28;20151;-72
2022/03/25 10:43:34;;;;;;;30.83;21.58;;;20.00;48.70;;;;;;5018297;28;20048;-73
2022/03/25 10:45:59;;;;;;;28.02;18.90;;;20.20;48.80;;;;;;5018189;28;20403;-73
2022/03/25 10:48:28;;;;;;;25.40;19.08;;;20.30;47.80;;;;;;5018508;28;20084;-73
2022/03/25 10:51:04;;;;;;;32.20;19.67;;;20.50;46.50;;;;;;5002159;28;20034;-73
2022/03/25 10:53:32;;;;;;;26.45;19.40;;;20.60;46.00;;;;;;5018370;28;20128;-73
2022/03/25 10:56:00;;;;;;;25.55;18.27;;;20.70;45.90;;;;;;5018293;28;20041;-73
2022/03/25 10:58:27;;;;;;;25.90;19.10;;;20.70;45.60;;;;;;5018331;28;20045;-73
2022/03/25 11:00:53;;;;;;;29.73;20.30;;;20.60;45.40;;;;;;5017883;28;20171;-72
2022/03/25 11:03:19;;;;;;;29.10;19.33;;;20.70;45.40;;;;;;5017251;28;20486;-73
2022/03/25 11:05:45;;;;;;;32.67;19.33;;;20.90;45.60;;;;;;5017869;28;20041;-73
2022/03/25 11:08:12;;;;;;;26.98;18.42;;;21.00;45.50;;;;;;5017874;28;20038;-74
2022/03/25 11:10:38;;;;;;;34.95;20.45;;;21.20;45.20;;;;;;5001650;28;20498;-73
2022/03/25 11:13:05;;;;;;;30.83;20.30;;;21.40;44.70;;;;;;5017771;28;20047;-73
2022/03/25 11:15:32;;;;;;;36.05;21.63;;;21.40;43.80;;;;;;5017724;28;20034;-73
2022/03/25 11:17:58;;;;;;;34.97;20.38;;;21.30;43.60;;;;;;5001241;28;20418;-73
2022/03/25 11:20:28;;;;;;;29.95;21.40;;;21.50;44.20;;;;;;5001288;28;20047;-73
2022/03/25 11:23:16;;;;;;;37.03;24.08;;;21.50;43.40;;;;;;5001311;28;20113;-74
2022/03/25 11:25:55;;;;;;;30.27;21.92;;;21.60;42.80;;;;;;5017902;28;20041;-73
2022/03/25 11:28:29;;;;;;;31.35;21.35;;;21.70;43.20;;;;;;5017517;28;20409;-73
2022/03/25 11:31:07;;;;;;;32.92;22.38;;;21.70;43.10;;;;;;5018489;28;20148;-73
2022/03/25 11:34:09;;;;;;;31.55;23.95;;;21.80;43.20;;;;;;5001082;28;20041;-73
2022/03/25 11:36:40;;;;;;;30.65;21.92;;;21.90;41.70;;;;;;5017430;28;20482;-72
2022/03/25 11:39:24;;;;;;;33.67;22.65;;;21.90;43.30;;;;;;5017618;28;20037;-73
2022/03/25 11:41:51;;;;;;;31.35;22.17;;;22.00;42.50;;;;;;5017536;28;20081;-73
2022/03/25 11:44:25;;;;;;;29.77;21.42;;;22.00;43.20;;;;;;5017296;28;20070;-73
2022/03/25 11:47:00;;;;;;;31.83;22.25;;;22.10;42.20;;;;;;5017122;28;20099;-73
2022/03/25 11:49:30;;;;;;;32.13;20.58;;;22.20;41.50;;;;;;5017105;28;20406;-73
2022/03/25 11:51:56;;;;;;;32.58;21.40;;;22.20;42.10;;;;;;5017016;28;20041;-73
2022/03/25 11:54:42;;;;;;;28.38;19.88;;;22.10;41.90;;;;;;5000673;28;20045;-73
2022/03/25 11:57:26;;;;;;;31.25;21.17;;;22.20;41.80;;;;;;5000676;28;20041;-73
2022/03/25 12:00:02;;;;;;;32.90;21.60;;;22.30;41.40;;;;;;5017041;28;20470;-72
2022/03/25 12:02:35;;;;;;;31.50;21.02;;;22.30;41.60;;;;;;5016675;28;20493;-73
2022/03/25 12:05:02;;;;;;;30.38;22.05;;;22.40;41.10;;;;;;5016842;28;20577;-72
2022/03/25 12:07:29;;;;;;;31.35;21.77;;;22.50;41.20;;;;;;5000497;28;20048;-73
2022/03/25 12:09:54;;;;;;;31.67;19.83;;;22.60;41.20;;;;;;5016795;28;20033;-73
2022/03/25 12:12:53;;;;;;;32.80;20.35;;;22.80;40.90;;;;;;5016645;28;20049;-72
2022/03/25 12:15:20;;;;;;;33.85;21.27;;;22.80;40.50;;;;;;5015985;28;20041;-73
2022/03/25 12:17:45;;;;;;;28.27;20.40;;;22.70;40.70;;;;;;5016490;28;20041;-72
2022/03/25 12:20:11;;;;;;;34.13;21.83;;;22.90;40.90;;;;;;5000178;28;20128;-72
2022/03/25 12:22:37;;;;;;;29.85;21.10;;;23.00;40.80;;;;;;4999963;28;20041;-72
2022/03/25 12:25:13;;;;;;;31.25;21.55;;;23.10;40.40;;;;;;5016719;28;20086;-73
2022/03/25 12:27:39;;;;;;;31.25;20.85;;;23.20;40.60;;;;;;5016609;28;20561;-72
2022/03/25 12:30:06;;;;;;;25.63;19.20;;;23.30;39.90;;;;;;5016545;28;20060;-72
2022/03/25 12:32:35;;;;;;;32.45;21.08;;;23.30;40.00;;;;;;5016229;28;20045;-72
2022/03/25 12:35:10;;;;;;;33.17;19.95;;;23.30;39.20;;;;;;5016364;28;20037;-72
2022/03/25 12:37:37;;;;;;;30.13;18.55;;;23.30;39.20;;;;;;4999871;28;20486;-73
2022/03/25 12:40:25;;;;;;;26.30;18.20;;;23.40;39.10;;;;;;5016337;28;20049;-73